Time;durP1;ratioP1;P1;durP2;ratioP2;P2;SDS_P1;SDS_P2;PMS_P1;PMS_P2;Temp;Humidity;BMP_temperature;BMP_pressure;BME280_temperature;BME280_humidity;BME280_pressure;Samples;Min_cycle;Max_cycle;Signal;HPM_P1;HPM_P2
2022/10/12 00:02:15;;;;;;;8.20;4.78;;;17.90;99.90;;;;;;4961387;28;20449;-70
2022/10/12 00:04:42;;;;;;;5.38;4.88;;;17.90;99.90;;;;;;4955680;28;20422;-70
2022/10/12 00:07:08;;;;;;;5.35;4.82;;;17.80;99.90;;;;;;4948349;28;20451;-70
2022/10/12 00:09:35;;;;;;;5.57;4.68;;;17.80;99.90;;;;;;4991901;28;20426;-70
2022/10/12 00:12:01;;;;;;;5.10;4.53;;;17.70;99.90;;;;;;4963707;28;20433;-70
2022/10/12 00:14:27;;;;;;;5.50;4.88;;;17.70;99.90;;;;;;5052808;28;20406;-70
2022/10/12 00:16:53;;;;;;;5.68;4.47;;;17.60;99.90;;;;;;4965587;28;20434;-70
2022/10/12 00:19:20;;;;;;;5.30;4.80;;;17.60;99.90;;;;;;4970505;28;20803;-70
2022/10/12 00:21:46;;;;;;;5.00;4.50;;;17.60;99.90;;;;;;4947993;28;20462;-70
2022/10/12 00:24:12;;;;;;;7.18;4.50;;;17.60;99.90;;;;;;4964796;28;20441;-70
2022/10/12 00:26:38;;;;;;;4.82;4.13;;;17.60;99.90;;;;;;4957323;28;20739;-70
2022/10/12 00:29:05;;;;;;;5.10;4.40;;;17.60;99.90;;;;;;4940908;28;20952;-71
2022/10/12 00:31:32;;;;;;;5.40;4.57;;;17.50;99.90;;;;;;4971265;28;20786;-70
2022/10/12 00:34:03;;;;;;;5.05;4.25;;;17.50;99.90;;;;;;4939502;28;20441;-70
2022/10/12 00:36:34;;;;;;;4.90;4.40;;;17.50;99.90;;;;;;4951869;28;20418;-70
2022/10/12 00:39:04;;;;;;;5.05;4.50;;;17.40;99.90;;;;;;4965782;28;20430;-70
2022/10/12 00:41:36;;;;;;;5.10;4.60;;;17.40;99.90;;;;;;4960230;28;20431;-70
2022/10/12 00:44:02;;;;;;;5.80;4.70;;;17.30;99.90;;;;;;4997041;28;20429;-70
2022/10/12 00:46:34;;;;;;;5.35;4.25;;;17.40;99.90;;;;;;4955598;28;20934;-70
2022/10/12 00:49:23;;;;;;;4.88;4.47;;;17.30;99.90;;;;;;4953949;28;20866;-70
2022/10/12 00:51:59;;;;;;;4.97;4.10;;;17.30;99.90;;;;;;4983216;28;20491;-70
2022/10/12 00:54:33;;;;;;;5.40;4.80;;;17.30;99.90;;;;;;4960472;28;20433;-70
2022/10/12 00:57:04;;;;;;;5.70;4.53;;;17.30;99.90;;;;;;4940527;28;20947;-70
2022/10/12 00:59:48;;;;;;;4.97;4.47;;;17.30;99.90;;;;;;4965686;28;20525;-70
2022/10/12 01:02:17;;;;;;;5.30;4.43;;;17.30;99.90;;;;;;4944828;28;20438;-70
2022/10/12 01:04:43;;;;;;;4.88;4.20;;;17.30;99.90;;;;;;4958158;28;20421;-70
2022/10/12 01:07:09;;;;;;;4.90;4.40;;;17.20;99.90;;;;;;4934543;28;20420;-70
2022/10/12 01:09:36;;;;;;;5.00;4.50;;;17.20;99.90;;;;;;4947889;28;20422;-70
2022/10/12 01:12:08;;;;;;;5.10;4.60;;;17.20;99.90;;;;;;4960440;28;20412;-70
2022/10/12 01:14:35;;;;;;;4.83;4.33;;;17.10;99.90;;;;;;5004117;28;20453;-70
2022/10/12 01:17:44;;;;;;;5.10;4.40;;;17.10;99.90;;;;;;4978944;28;20807;-70
2022/10/12 01:20:40;;;;;;;5.53;4.30;;;17.10;99.90;;;;;;4951746;28;20479;-70
2022/10/12 01:23:24;;;;;;;6.63;4.53;;;17.10;99.90;;;;;;4921041;28;20418;-70
2022/10/12 01:26:53;;;;;;;6.18;4.70;;;17.10;99.90;;;;;;4964764;28;20516;-70
2022/10/12 01:29:28;;;;;;;5.80;4.68;;;17.00;99.90;;;;;;4945243;28;20541;-71
2022/10/12 01:32:09;;;;;;;4.75;4.20;;;17.10;99.90;;;;;;4964943;28;20423;-70
2022/10/12 01:34:46;;;;;;;5.70;4.22;;;17.10;99.90;;;;;;4950115;28;20936;-70
2022/10/12 01:37:35;;;;;;;4.88;4.35;;;17.10;99.90;;;;;;4965927;28;20427;-70
2022/10/12 01:40:10;;;;;;;4.50;3.85;;;17.10;99.90;;;;;;4944651;28;20448;-70
2022/10/12 01:42:42;;;;;;;4.78;4.10;;;17.00;99.90;;;;;;4955223;28;20434;-70
2022/10/12 01:45:16;;;;;;;4.50;3.97;;;17.00;99.90;;;;;;4982019;28;20433;-70
2022/10/12 01:47:53;;;;;;;5.47;4.00;;;17.00;99.90;;;;;;4979285;28;20906;-70
2022/10/12 01:50:26;;;;;;;4.30;3.90;;;16.90;99.90;;;;;;4963141;28;20838;-70
2022/10/12 01:53:23;;;;;;;4.30;3.83;;;16.90;99.90;;;;;;4995926;28;20469;-70
2022/10/12 01:56:06;;;;;;;5.07;4.00;;;16.90;99.90;;;;;;4955019;28;20509;-70
2022/10/12 01:58:50;;;;;;;4.93;3.92;;;16.90;99.90;;;;;;4950573;28;20435;-70
2022/10/12 02:01:41;;;;;;;4.72;3.75;;;16.90;99.90;;;;;;4949404;28;20418;-70
2022/10/12 02:04:54;;;;;;;6.18;3.65;;;16.90;99.90;;;;;;4964701;28;20418;-70
2022/10/12 02:07:47;;;;;;;3.95;3.58;;;16.90;99.90;;;;;;4935778;28;20423;-70
2022/10/12 02:10:28;;;;;;;3.92;3.40;;;16.80;99.90;;;;;;4952506;28;20414;-70
2022/10/12 02:13:00;;;;;;;3.90;3.50;;;16.70;99.90;;;;;;4934325;28;20414;-70
2022/10/12 02:15:29;;;;;;;4.18;3.60;;;16.70;99.90;;;;;;5012059;28;20475;-70
2022/10/12 02:17:58;;;;;;;4.05;3.30;;;16.70;99.90;;;;;;5004559;28;20410;-70
2022/10/12 02:20:30;;;;;;;4.13;3.50;;;16.60;99.90;;;;;;4961165;28;20426;-70
2022/10/12 02:22:56;;;;;;;3.70;3.20;;;16.60;99.90;;;;;;4961826;28;20899;-70
2022/10/12 02:25:26;;;;;;;3.65;3.20;;;16.50;99.90;;;;;;5027584;28;20938;-70
2022/10/12 02:28:17;;;;;;;4.55;3.00;;;16.50;99.90;;;;;;4952537;28;20414;-70
2022/10/12 02:31:15;;;;;;;3.33;2.88;;;16.50;99.90;;;;;;4959977;28;20468;-70
2022/10/12 02:34:03;;;;;;;3.50;3.13;;;16.40;99.90;;;;;;4968710;28;20820;-70
2022/10/12 02:36:56;;;;;;;4.28;3.08;;;16.40;99.90;;;;;;5013883;28;20538;-70
2022/10/12 02:39:42;;;;;;;3.50;2.95;;;16.40;99.90;;;;;;4967797;28;20410;-70
2022/10/12 02:42:17;;;;;;;4.13;2.92;;;16.30;99.90;;;;;;4955014;28;20689;-70
2022/10/12 02:44:46;;;;;;;3.50;2.95;;;16.30;99.90;;;;;;4962971;28;20885;-70
2022/10/12 02:47:15;;;;;;;3.38;2.90;;;16.30;99.90;;;;;;5015759;28;20425;-70
2022/10/12 02:49:45;;;;;;;3.33;2.70;;;16.30;99.90;;;;;;4991840;28;20414;-70
2022/10/12 02:52:11;;;;;;;3.05;2.75;;;16.30;99.90;;;;;;4948693;28;20468;-70
2022/10/12 02:54:39;;;;;;;3.25;2.58;;;16.20;99.90;;;;;;4969624;28;20426;-70
2022/10/12 02:57:05;;;;;;;3.03;2.50;;;16.20;99.90;;;;;;4994621;28;20904;-70
2022/10/12 02:59:32;;;;;;;4.38;2.60;;;16.20;99.90;;;;;;4958851;28;20426;-70
2022/10/12 03:01:58;;;;;;;3.15;2.70;;;16.20;99.90;;;;;;4985478;28;20472;-70
2022/10/12 03:04:24;;;;;;;2.97;2.67;;;16.20;99.90;;;;;;4959192;28;20433;-70
2022/10/12 03:06:51;;;;;;;2.90;2.60;;;16.20;99.90;;;;;;4949487;28;20424;-70
2022/10/12 03:09:18;;;;;;;4.03;2.53;;;16.20;99.90;;;;;;4968496;28;20423;-70
2022/10/12 03:11:44;;;;;;;3.63;2.45;;;16.20;99.90;;;;;;4977015;28;20426;-70
2022/10/12 03:14:15;;;;;;;3.17;2.55;;;16.20;99.90;;;;;;4953332;28;20452;-70
2022/10/12 03:16:42;;;;;;;2.65;2.42;;;16.20;99.90;;;;;;4999290;28;20822;-70
2022/10/12 03:19:09;;;;;;;3.78;2.35;;;16.20;99.90;;;;;;4979324;28;20517;-70
2022/10/12 03:21:35;;;;;;;3.03;2.40;;;16.20;99.90;;;;;;5036729;28;20417;-70
2022/10/12 03:24:02;;;;;;;3.15;2.50;;;16.20;99.90;;;;;;4937241;28;20420;-70
2022/10/12 03:26:29;;;;;;;3.65;2.42;;;16.10;99.90;;;;;;4995799;28;20405;-70
2022/10/12 03:28:55;;;;;;;3.08;2.10;;;16.00;99.90;;;;;;4970769;28;20416;-70
2022/10/12 03:31:22;;;;;;;2.65;2.45;;;16.00;99.90;;;;;;4961665;28;20414;-70
2022/10/12 03:33:50;;;;;;;2.78;2.30;;;16.00;99.90;;;;;;4951125;28;20477;-70
2022/10/12 03:36:17;;;;;;;3.03;2.33;;;16.00;99.90;;;;;;4945295;28;20966;-70
2022/10/12 03:38:43;;;;;;;2.60;2.20;;;16.00;99.90;;;;;;4972292;28;20449;-70
2022/10/12 03:41:09;;;;;;;3.08;2.38;;;16.00;99.90;;;;;;4935902;28;20457;-70
2022/10/12 03:43:36;;;;;;;2.30;2.10;;;16.00;99.90;;;;;;4990632;28;20424;-70
2022/10/12 03:46:04;;;;;;;4.70;2.40;;;15.90;99.90;;;;;;4948445;28;20422;-70
2022/10/12 03:48:31;;;;;;;2.70;2.25;;;16.00;99.90;;;;;;4983420;28;21129;-70
2022/10/12 03:50:57;;;;;;;3.80;2.20;;;15.90;99.90;;;;;;4986453;28;20430;-70
2022/10/12 03:53:23;;;;;;;2.60;2.20;;;15.90;99.90;;;;;;4951342;28;20474;-70
2022/10/12 03:55:49;;;;;;;2.63;2.22;;;15.90;99.90;;;;;;4946621;28;20429;-70
2022/10/12 03:58:17;;;;;;;2.73;2.27;;;15.90;99.90;;;;;;4961106;28;20484;-70
2022/10/12 04:00:44;;;;;;;2.80;2.35;;;16.00;99.90;;;;;;4951519;28;20426;-70
2022/10/12 04:03:10;;;;;;;3.28;2.22;;;16.00;99.90;;;;;;4962253;28;20493;-70
2022/10/12 04:05:36;;;;;;;3.33;2.30;;;16.10;99.90;;;;;;5002467;28;20405;-70
2022/10/12 04:08:03;;;;;;;4.87;2.20;;;16.10;99.90;;;;;;4998589;28;20513;-70
2022/10/12 04:10:29;;;;;;;4.65;2.20;;;16.10;99.90;;;;;;4962613;28;20421;-70
2022/10/12 04:12:56;;;;;;;8.60;2.45;;;16.10;99.90;;;;;;4947242;28;20622;-70
2022/10/12 04:15:25;;;;;;;3.72;2.28;;;16.20;99.90;;;;;;4952167;28;20550;-70
2022/10/12 04:17:53;;;;;;;5.63;2.30;;;16.20;99.90;;;;;;4968444;28;20798;-70
2022/10/12 04:20:20;;;;;;;6.13;2.60;;;16.30;99.90;;;;;;4971738;28;20409;-70
2022/10/12 04:22:49;;;;;;;5.22;2.40;;;16.30;99.90;;;;;;4980989;28;20771;-70
2022/10/12 04:25:15;;;;;;;3.97;2.00;;;16.40;99.90;;;;;;5045065;28;20470;-70
2022/10/12 04:27:42;;;;;;;2.63;2.00;;;16.40;99.90;;;;;;4967631;28;20433;-70
2022/10/12 04:30:09;;;;;;;2.30;2.10;;;16.40;99.90;;;;;;4944606;28;20425;-70
2022/10/12 04:32:37;;;;;;;3.60;2.15;;;16.60;99.90;;;;;;4976897;28;20423;-70
2022/10/12 04:35:05;;;;;;;3.67;2.10;;;16.60;99.90;;;;;;4975619;28;20419;-70
2022/10/12 04:37:32;;;;;;;4.15;2.00;;;16.70;99.90;;;;;;4975693;28;20409;-70
2022/10/12 04:39:58;;;;;;;5.15;1.95;;;16.80;99.90;;;;;;5002298;28;20577;-70
2022/10/12 04:42:24;;;;;;;2.65;2.00;;;16.80;99.90;;;;;;4950516;28;20433;-70
2022/10/12 04:44:50;;;;;;;4.60;2.07;;;17.00;99.90;;;;;;4946289;28;20985;-70
2022/10/12 04:47:18;;;;;;;2.83;1.98;;;17.00;99.90;;;;;;4955247;28;20416;-70
2022/10/12 04:49:44;;;;;;;3.50;1.90;;;17.10;99.90;;;;;;4956022;28;20494;-70
2022/10/12 04:52:13;;;;;;;4.87;2.00;;;17.10;99.90;;;;;;4993537;28;20490;-70
2022/10/12 04:54:39;;;;;;;5.07;1.70;;;17.20;99.90;;;;;;4958545;28;20531;-70
2022/10/12 04:57:06;;;;;;;3.20;2.05;;;17.20;99.90;;;;;;4984251;28;20439;-70
2022/10/12 04:59:32;;;;;;;3.63;1.95;;;17.30;99.90;;;;;;4945574;28;20520;-70
2022/10/12 05:01:59;;;;;;;3.50;1.98;;;17.30;99.90;;;;;;4944788;28;20445;-70
2022/10/12 05:04:25;;;;;;;2.58;1.95;;;17.30;99.90;;;;;;4964735;28;20521;-70
2022/10/12 05:06:52;;;;;;;2.65;1.90;;;17.40;99.90;;;;;;4961705;28;20418;-70
2022/10/12 05:09:18;;;;;;;2.70;2.10;;;17.40;99.90;;;;;;4974191;28;20426;-70
2022/10/12 05:11:48;;;;;;;2.10;1.90;;;17.50;99.90;;;;;;4999750;28;20487;-70
2022/10/12 05:14:14;;;;;;;2.75;1.70;;;17.60;99.90;;;;;;4964997;28;20481;-70
2022/10/12 05:16:40;;;;;;;2.30;1.90;;;17.60;99.90;;;;;;4954287;28;20517;-70
2022/10/12 05:19:07;;;;;;;3.13;2.00;;;17.70;99.90;;;;;;4961053;28;20422;-70
2022/10/12 05:21:34;;;;;;;2.10;1.90;;;17.80;99.90;;;;;;4966994;28;20433;-70
2022/10/12 05:24:01;;;;;;;3.77;2.00;;;17.90;99.90;;;;;;4980434;28;20444;-70
2022/10/12 05:26:27;;;;;;;2.50;1.85;;;17.90;99.90;;;;;;5041130;28;20405;-70
2022/10/12 05:28:54;;;;;;;2.00;1.80;;;18.00;99.90;;;;;;4978169;28;20417;-70
2022/10/12 05:31:20;;;;;;;3.30;1.80;;;18.20;99.90;;;;;;4948476;28;20779;-70
2022/10/12 05:33:50;;;;;;;2.72;1.83;;;18.30;99.90;;;;;;4941356;28;20472;-70
2022/10/12 05:36:16;;;;;;;2.73;1.80;;;18.40;99.90;;;;;;4943727;28;20958;-70
2022/10/12 05:38:42;;;;;;;5.88;2.00;;;18.50;99.90;;;;;;4948293;28;20461;-70
2022/10/12 05:41:08;;;;;;;2.47;2.20;;;18.60;99.90;;;;;;4940481;28;20971;-70
2022/10/12 05:43:35;;;;;;;5.45;2.50;;;18.60;99.90;;;;;;4951102;28;20475;-70
2022/10/12 05:46:02;;;;;;;3.55;2.00;;;18.60;99.90;;;;;;4978169;28;20467;-70
2022/10/12 05:48:29;;;;;;;2.63;1.98;;;18.60;99.90;;;;;;4957935;28;20419;-70
2022/10/12 05:50:55;;;;;;;2.50;1.80;;;18.70;99.90;;;;;;4968269;28;20416;-70
2022/10/12 05:53:22;;;;;;;3.05;1.90;;;18.70;99.90;;;;;;4989522;28;20967;-70
2022/10/12 05:55:58;;;;;;;3.63;1.80;;;18.80;99.90;;;;;;5005009;28;20424;-70
2022/10/12 05:58:27;;;;;;;3.03;2.00;;;18.80;99.90;;;;;;4955702;28;20753;-70
2022/10/12 06:00:54;;;;;;;3.47;1.80;;;18.90;99.90;;;;;;4971811;28;20454;-70
2022/10/12 06:03:22;;;;;;;3.45;1.80;;;19.00;99.90;;;;;;4948284;28;20836;-70
2022/10/12 06:05:48;;;;;;;2.85;1.90;;;19.10;99.90;;;;;;4951472;28;20418;-70
2022/10/12 06:08:16;;;;;;;3.13;1.80;;;19.10;99.90;;;;;;4958268;28;20414;-70
2022/10/12 06:10:48;;;;;;;3.30;1.98;;;19.20;99.90;;;;;;4960143;28;20422;-71
2022/10/12 06:13:16;;;;;;;3.33;1.80;;;19.20;99.90;;;;;;4963015;28;20805;-71
2022/10/12 06:15:48;;;;;;;2.50;1.80;;;19.30;99.90;;;;;;4975528;28;20763;-71
2022/10/12 06:18:17;;;;;;;2.10;1.63;;;19.30;99.90;;;;;;4965646;28;20452;-70
2022/10/12 06:20:49;;;;;;;2.90;1.70;;;19.40;99.90;;;;;;4957164;28;20436;-70
2022/10/12 06:23:16;;;;;;;2.83;1.80;;;19.40;99.90;;;;;;4967865;28;20510;-70
2022/10/12 06:25:46;;;;;;;2.67;1.80;;;19.60;99.90;;;;;;4979778;28;20416;-71
2022/10/12 06:28:15;;;;;;;2.83;2.05;;;19.70;99.90;;;;;;4930920;28;20418;-71
2022/10/12 06:30:42;;;;;;;3.05;1.70;;;19.70;99.90;;;;;;4972904;28;20414;-70
2022/10/12 06:33:09;;;;;;;4.55;1.90;;;19.70;99.90;;;;;;4950120;28;21027;-70
2022/10/12 06:35:35;;;;;;;2.65;1.90;;;19.80;99.90;;;;;;4973388;28;20505;-70
2022/10/12 06:38:02;;;;;;;2.10;1.90;;;19.80;99.90;;;;;;4967527;28;20424;-70
2022/10/12 06:40:31;;;;;;;10.88;2.20;;;19.80;99.90;;;;;;4944145;28;20422;-71
2022/10/12 06:43:01;;;;;;;10.07;2.67;;;20.10;99.90;;;;;;4980561;28;20416;-70
2022/10/12 06:45:29;;;;;;;7.45;2.78;;;20.30;99.90;;;;;;4972121;28;20417;-71
2022/10/12 06:47:56;;;;;;;7.00;2.60;;;20.50;99.90;;;;;;4987273;28;20424;-70
2022/10/12 06:50:23;;;;;;;2.97;2.30;;;20.50;99.90;;;;;;4958851;28;20427;-70
2022/10/12 06:52:49;;;;;;;3.55;2.40;;;20.50;99.90;;;;;;5020343;28;21037;-70
2022/10/12 06:55:15;;;;;;;6.47;2.53;;;20.60;99.90;;;;;;5025965;28;20571;-70
2022/10/12 06:57:42;;;;;;;15.00;2.50;;;20.60;99.90;;;;;;5000071;28;20417;-71
2022/10/12 07:00:09;;;;;;;10.05;2.40;;;20.60;99.90;;;;;;4960398;28;20497;-70
2022/10/12 07:02:36;;;;;;;5.57;2.33;;;20.60;99.90;;;;;;4978760;28;20415;-70
2022/10/12 07:05:03;;;;;;;5.28;2.42;;;20.60;99.90;;;;;;4959061;28;20412;-71
2022/10/12 07:07:35;;;;;;;4.13;2.33;;;20.70;99.90;;;;;;5029883;28;20456;-70
2022/10/12 07:10:04;;;;;;;5.70;2.60;;;20.60;99.90;;;;;;4957385;28;20424;-71
2022/10/12 07:12:30;;;;;;;4.13;2.30;;;20.70;99.90;;;;;;4979871;28;20417;-71
2022/10/12 07:14:57;;;;;;;4.07;2.70;;;20.80;99.90;;;;;;4958654;28;20416;-70
2022/10/12 07:17:24;;;;;;;5.45;2.97;;;20.70;99.90;;;;;;4956603;28;20425;-71
2022/10/12 07:19:50;;;;;;;5.70;2.85;;;20.70;99.90;;;;;;4944848;28;20422;-70
2022/10/12 07:22:17;;;;;;;5.70;3.03;;;20.80;99.90;;;;;;4950184;28;20418;-71
2022/10/12 07:24:43;;;;;;;6.93;3.28;;;21.00;99.90;;;;;;4951687;28;21076;-70
2022/10/12 07:27:11;;;;;;;7.97;3.40;;;21.10;99.90;;;;;;5012478;28;20425;-70
2022/10/12 07:29:39;;;;;;;6.88;3.63;;;21.10;99.90;;;;;;4955545;28;20786;-70
2022/10/12 07:32:06;;;;;;;5.03;3.28;;;21.10;99.90;;;;;;4952104;28;20433;-70
2022/10/12 07:34:33;;;;;;;6.85;3.70;;;21.10;99.90;;;;;;4946620;28;20450;-70
2022/10/12 07:37:00;;;;;;;7.43;3.57;;;21.00;99.90;;;;;;4973148;28;20426;-71
2022/10/12 07:39:26;;;;;;;7.22;4.15;;;21.00;99.90;;;;;;4961302;28;20418;-70
2022/10/12 07:41:53;;;;;;;5.40;3.58;;;21.10;99.90;;;;;;4956076;28;20426;-70
2022/10/12 07:44:21;;;;;;;8.05;4.43;;;21.10;99.90;;;;;;4959727;28;20433;-70
2022/10/12 07:46:49;;;;;;;9.45;4.60;;;21.20;99.90;;;;;;4939790;28;20417;-71
2022/10/12 07:49:15;;;;;;;12.27;4.80;;;21.30;99.90;;;;;;4960942;28;20445;-70
2022/10/12 07:51:43;;;;;;;10.20;5.22;;;21.40;99.90;;;;;;4964197;28;20447;-70
2022/10/12 07:54:09;;;;;;;8.00;5.28;;;21.50;99.90;;;;;;4967372;28;20456;-70
2022/10/12 07:56:36;;;;;;;5.65;4.75;;;21.60;99.90;;;;;;5032926;28;20976;-71
2022/10/12 07:59:04;;;;;;;6.55;4.85;;;21.60;99.90;;;;;;4988094;28;20431;-70
2022/10/12 08:01:31;;;;;;;9.75;5.10;;;21.60;99.90;;;;;;4951809;28;20433;-71
2022/10/12 08:03:58;;;;;;;9.52;5.00;;;21.70;99.90;;;;;;4950025;28;20427;-70
2022/10/12 08:06:30;;;;;;;12.60;5.03;;;21.80;99.90;;;;;;4962161;28;20473;-70
2022/10/12 08:08:59;;;;;;;9.23;4.80;;;21.80;99.90;;;;;;4945797;28;20422;-70
2022/10/12 08:11:28;;;;;;;11.95;4.80;;;21.80;99.90;;;;;;4944288;28;20496;-70
2022/10/12 08:13:55;;;;;;;10.35;4.65;;;21.90;99.90;;;;;;4988402;28;20496;-70
2022/10/12 08:16:22;;;;;;;8.32;5.00;;;22.00;99.90;;;;;;4973954;28;20534;-71
2022/10/12 08:18:50;;;;;;;11.07;5.03;;;22.10;99.90;;;;;;4970374;28;20475;-70
2022/10/12 08:21:19;;;;;;;8.20;4.22;;;22.20;99.90;;;;;;4941862;28;20507;-70
2022/10/12 08:23:48;;;;;;;7.60;4.45;;;22.20;99.90;;;;;;4958828;28;20986;-71
2022/10/12 08:26:14;;;;;;;10.30;4.72;;;22.20;99.90;;;;;;4962695;28;20948;-71
2022/10/12 08:28:42;;;;;;;6.20;4.05;;;22.40;99.90;;;;;;4986707;28;21210;-70
2022/10/12 08:31:13;;;;;;;9.93;3.22;;;22.70;99.90;;;;;;4974407;28;20425;-71
2022/10/12 08:33:39;;;;;;;4.93;3.20;;;22.70;99.90;;;;;;4948920;28;20510;-70
2022/10/12 08:36:07;;;;;;;6.85;3.55;;;22.70;99.90;;;;;;4944769;28;20453;-70
2022/10/12 08:38:39;;;;;;;4.85;3.10;;;22.80;99.90;;;;;;4941828;28;20434;-70
2022/10/12 08:41:44;;;;;;;4.00;2.90;;;22.90;99.90;;;;;;4946034;28;20464;-70
2022/10/12 08:44:43;;;;;;;6.00;3.30;;;22.90;99.90;;;;;;4950797;28;20434;-70
2022/10/12 08:47:23;;;;;;;4.90;2.90;;;23.00;99.90;;;;;;4989972;28;20406;-71
2022/10/12 08:49:51;;;;;;;6.97;3.58;;;23.00;99.90;;;;;;4996668;28;21151;-70
2022/10/12 08:52:39;;;;;;;5.70;3.38;;;23.00;99.90;;;;;;4957615;28;20565;-70
2022/10/12 08:55:42;;;;;;;5.80;3.75;;;22.90;99.90;;;;;;4967917;28;20483;-71
2022/10/12 08:58:16;;;;;;;5.53;3.75;;;22.90;99.90;;;;;;4964821;28;20422;-71
2022/10/12 09:00:47;;;;;;;7.50;3.80;;;23.00;99.90;;;;;;4962283;28;20416;-70
2022/10/12 09:03:51;;;;;;;10.50;4.10;;;23.10;99.90;;;;;;4964973;28;20441;-71
2022/10/12 09:06:23;;;;;;;5.63;3.90;;;23.30;99.90;;;;;;4983315;28;20419;-71
2022/10/12 09:09:34;;;;;;;6.32;3.80;;;23.40;99.90;;;;;;4980241;28;20416;-71
2022/10/12 09:12:53;;;;;;;8.53;4.00;;;23.40;99.90;;;;;;4966421;28;20421;-71
2022/10/12 09:15:27;;;;;;;8.18;3.92;;;23.60;99.90;;;;;;4963021;28;20479;-71
2022/10/12 09:17:55;;;;;;;8.50;4.33;;;23.70;99.90;;;;;;4963064;28;20440;-71
2022/10/12 09:20:30;;;;;;;7.90;3.97;;;23.80;99.90;;;;;;4959443;28;20431;-71
2022/10/12 09:23:24;;;;;;;7.80;4.13;;;24.00;99.90;;;;;;4935326;28;20441;-71
2022/10/12 09:26:00;;;;;;;7.75;3.88;;;24.00;99.90;;;;;;4957543;28;20428;-71
2022/10/12 09:28:43;;;;;;;8.37;3.87;;;24.10;99.90;;;;;;4947332;28;20422;-71
2022/10/12 09:31:09;;;;;;;7.45;3.53;;;24.30;99.90;;;;;;4975380;28;20422;-71
2022/10/12 09:33:56;;;;;;;31.30;4.40;;;24.30;99.90;;;;;;4947560;28;20524;-71
2022/10/12 09:36:27;;;;;;;10.68;3.95;;;24.40;99.90;;;;;;4973349;28;20548;-71
2022/10/12 09:38:57;;;;;;;8.30;3.60;;;24.50;99.90;;;;;;4947460;29;20422;-71
2022/10/12 09:41:41;;;;;;;8.77;3.22;;;24.60;99.90;;;;;;4964301;28;20422;-71
2022/10/12 09:44:28;;;;;;;5.60;3.53;;;24.60;99.90;;;;;;4958321;28;20460;-71
2022/10/12 09:47:29;;;;;;;6.90;3.70;;;24.70;99.90;;;;;;4954185;28;20417;-71
2022/10/12 09:50:03;;;;;;;7.70;3.58;;;24.90;99.90;;;;;;4964942;28;20877;-71
2022/10/12 09:52:36;;;;;;;10.57;3.70;;;25.10;99.90;;;;;;4969157;28;20422;-71
2022/10/12 09:55:17;;;;;;;9.93;3.40;;;25.20;99.90;;;;;;4945846;28;20425;-71
2022/10/12 09:57:56;;;;;;;7.25;3.90;;;25.30;99.90;;;;;;4946300;28;20434;-71
2022/10/12 10:00:31;;;;;;;7.85;3.80;;;25.20;99.90;;;;;;4979551;28;21008;-71
2022/10/12 10:02:59;;;;;;;6.82;3.55;;;25.10;99.90;;;;;;4962191;28;20419;-71
2022/10/12 10:05:32;;;;;;;7.87;3.70;;;25.20;99.90;;;;;;4992621;28;20425;-71
2022/10/12 10:08:21;;;;;;;8.40;3.45;;;25.30;99.90;;;;;;5000331;28;20496;-71
2022/10/12 10:10:58;;;;;;;11.77;3.63;;;25.50;99.90;;;;;;4996320;28;20513;-71
2022/10/12 10:13:31;;;;;;;5.90;3.00;;;25.80;99.90;;;;;;4962372;28;20427;-71
2022/10/12 10:16:10;;;;;;;7.63;3.30;;;25.80;99.90;;;;;;4970663;28;20943;-71
2022/10/12 10:18:53;;;;;;;8.35;3.08;;;25.90;99.90;;;;;;4946491;28;20430;-71
2022/10/12 10:21:38;;;;;;;6.00;3.10;;;26.00;99.90;;;;;;4935083;28;20423;-69
2022/10/12 10:24:23;;;;;;;6.63;3.00;;;26.20;99.90;;;;;;4949074;28;20428;-69
2022/10/12 10:26:54;;;;;;;7.07;3.22;;;26.00;99.90;;;;;;4952174;28;20459;-69
2022/10/12 10:29:34;;;;;;;6.13;3.03;;;25.90;99.90;;;;;;4968931;28;20470;-69
2022/10/12 10:32:25;;;;;;;9.90;3.50;;;25.70;99.90;;;;;;4971207;28;21105;-69
2022/10/12 10:35:11;;;;;;;6.30;3.40;;;25.50;99.90;;;;;;4958212;28;20425;-71
2022/10/12 10:38:14;;;;;;;7.72;3.20;;;25.30;99.90;;;;;;4982314;28;20422;-71
2022/10/12 10:40:41;;;;;;;11.50;3.50;;;25.70;99.90;;;;;;4989801;28;20465;-68
2022/10/12 10:43:26;;;;;;;9.27;3.50;;;25.90;99.90;;;;;;4959476;28;20476;-69
2022/10/12 10:46:01;;;;;;;12.48;3.50;;;25.80;99.90;;;;;;4947939;28;20426;-69
2022/10/12 10:49:00;;;;;;;8.87;3.50;;;26.30;99.90;;;;;;4949299;28;20431;-69
2022/10/12 10:51:50;;;;;;;9.00;3.28;;;28.30;99.90;;;;;;5025147;28;20468;-69
2022/10/12 10:54:25;;;;;;;9.48;3.35;;;26.90;99.90;;;;;;4969084;28;20758;-69
2022/10/12 10:57:21;;;;;;;5.68;3.38;;;26.10;99.90;;;;;;4946552;28;20422;-69
2022/10/12 11:00:01;;;;;;;7.45;3.38;;;25.80;99.90;;;;;;4963825;28;20515;-69
2022/10/12 11:02:57;;;;;;;10.10;3.42;;;25.80;99.90;;;;;;4974519;28;20421;-69
2022/10/12 11:05:34;;;;;;;10.10;3.55;;;25.70;99.90;;;;;;5033276;28;20432;-70
2022/10/12 11:08:35;;;;;;;4.80;3.10;;;25.50;99.90;;;;;;4944808;28;20471;-69
2022/10/12 11:11:21;;;;;;;8.27;3.70;;;25.20;99.90;;;;;;4974653;28;20429;-70
2022/10/12 11:13:55;;;;;;;10.80;3.50;;;25.00;99.90;;;;;;4953284;28;20420;-70
2022/10/12 11:16:36;;;;;;;9.70;3.50;;;24.90;99.90;;;;;;4953291;28;20430;-69
2022/10/12 11:19:36;;;;;;;11.03;3.70;;;25.10;99.90;;;;;;4987094;28;20423;-69
2022/10/12 11:22:39;;;;;;;10.77;3.47;;;25.10;99.90;;;;;;4940141;28;20475;-70
2022/10/12 11:25:27;;;;;;;7.07;3.30;;;25.20;99.90;;;;;;4952300;28;20812;-71
2022/10/12 11:27:54;;;;;;;7.78;3.40;;;25.00;99.90;;;;;;4949632;28;20540;-71
2022/10/12 11:30:24;;;;;;;7.70;3.40;;;24.90;99.90;;;;;;4943299;28;21061;-71
2022/10/12 11:33:07;;;;;;;8.32;3.55;;;24.90;99.90;;;;;;4990243;28;20762;-71
2022/10/12 11:35:42;;;;;;;8.38;3.70;;;24.70;99.90;;;;;;4996780;28;20409;-71
2022/10/12 11:38:25;;;;;;;8.00;3.60;;;24.70;99.90;;;;;;4981063;28;21004;-71
2022/10/12 11:41:19;;;;;;;7.28;3.80;;;24.50;99.90;;;;;;5021426;28;20430;-71
2022/10/12 11:44:11;;;;;;;9.85;3.70;;;24.50;99.90;;;;;;4933629;28;20511;-71
2022/10/12 11:46:46;;;;;;;10.23;3.80;;;24.50;99.90;;;;;;4964164;28;20424;-71
2022/10/12 11:49:22;;;;;;;9.15;3.40;;;24.50;99.90;;;;;;4941379;28;20416;-71
2022/10/12 11:51:56;;;;;;;9.60;3.53;;;24.40;99.90;;;;;;4972865;28;20540;-71
2022/10/12 11:54:49;;;;;;;8.98;3.65;;;24.50;99.90;;;;;;4950926;28;20418;-71
2022/10/12 11:57:28;;;;;;;11.68;3.78;;;24.60;99.90;;;;;;4954142;28;20918;-71
2022/10/12 12:00:01;;;;;;;9.10;3.63;;;24.70;99.90;;;;;;4954970;28;20512;-71
2022/10/12 12:02:40;;;;;;;10.45;3.78;;;24.70;99.90;;;;;;4950889;28;20513;-71
2022/10/12 12:05:15;;;;;;;9.50;3.65;;;24.50;99.90;;;;;;4979445;28;20468;-71
2022/10/12 12:07:53;;;;;;;7.95;3.72;;;24.30;99.90;;;;;;4966132;28;20420;-71
2022/10/12 12:10:26;;;;;;;8.02;3.45;;;24.20;99.90;;;;;;5000424;28;20768;-71
2022/10/12 12:13:14;;;;;;;11.48;3.75;;;24.40;99.90;;;;;;4957157;28;20465;-71
2022/10/12 12:16:02;;;;;;;10.57;4.00;;;24.60;99.90;;;;;;4961144;28;20414;-71
2022/10/12 12:18:34;;;;;;;18.57;4.00;;;24.60;99.90;;;;;;4964002;28;20970;-71
2022/10/12 12:21:04;;;;;;;8.90;3.70;;;24.50;99.90;;;;;;4961650;28;20533;-71
2022/10/12 12:23:55;;;;;;;27.25;4.60;;;24.50;99.90;;;;;;4955806;28;20422;-71
2022/10/12 12:26:29;;;;;;;8.45;3.90;;;24.50;99.90;;;;;;4947229;28;20421;-71
2022/10/12 12:29:18;;;;;;;7.63;3.60;;;24.60;99.90;;;;;;4952888;28;20439;-71
2022/10/12 12:31:57;;;;;;;7.78;3.55;;;24.60;99.90;;;;;;4983187;28;20895;-71
2022/10/12 12:34:26;;;;;;;10.63;3.38;;;24.60;99.90;;;;;;4941859;28;20414;-71
2022/10/12 12:36:53;;;;;;;8.70;3.35;;;24.60;99.90;;;;;;4975521;28;20453;-71
2022/10/12 12:39:34;;;;;;;9.07;3.90;;;24.70;99.90;;;;;;4952548;28;20463;-71
2022/10/12 12:42:08;;;;;;;6.57;3.45;;;24.70;99.90;;;;;;4937453;28;20459;-71
2022/10/12 12:44:41;;;;;;;10.98;3.83;;;24.60;99.90;;;;;;4952179;28;20479;-71
2022/10/12 12:47:11;;;;;;;7.15;3.38;;;24.60;99.90;;;;;;4954454;28;20510;-71
2022/10/12 12:49:39;;;;;;;6.72;3.47;;;24.60;99.90;;;;;;4950236;28;20421;-71
2022/10/12 12:52:28;;;;;;;11.65;3.53;;;24.60;99.90;;;;;;4980177;28;21112;-71
2022/10/12 12:55:13;;;;;;;10.38;3.58;;;24.60;99.90;;;;;;4938186;28;20462;-71
2022/10/12 12:58:19;;;;;;;12.45;3.85;;;24.60;99.90;;;;;;4952819;28;20426;-71
2022/10/12 13:01:21;;;;;;;8.38;3.75;;;24.50;99.90;;;;;;4951430;28;20513;-71
2022/10/12 13:04:35;;;;;;;10.63;3.58;;;24.50;99.90;;;;;;4966734;28;20408;-71
2022/10/12 13:07:28;;;;;;;9.90;3.70;;;24.50;99.90;;;;;;4956047;28;20763;-71
2022/10/12 13:10:52;;;;;;;9.40;3.70;;;24.40;99.90;;;;;;4943931;28;20493;-71
2022/10/12 13:14:03;;;;;;;9.60;3.70;;;24.30;99.90;;;;;;4980645;28;20402;-71
2022/10/12 13:16:59;;;;;;;9.38;3.45;;;24.30;99.90;;;;;;4956837;28;21006;-71
2022/10/12 13:19:27;;;;;;;8.73;3.60;;;24.20;99.90;;;;;;4947324;28;20443;-71
2022/10/12 13:22:01;;;;;;;10.98;3.70;;;24.20;99.90;;;;;;4940168;28;20493;-71
2022/10/12 13:24:49;;;;;;;9.48;4.05;;;24.10;99.90;;;;;;4941352;28;20811;-71